Lake Forest, Missouri
Current Conditions -  °F | °C
As of 2:15 PM on Sunday 25 Jan 2015 (Local Time) from KSAR Reporting Station
Drizzle Drizzle  
Wind Chill: 39°   Ceiling: 600
Heat Index: 44°   Visibility: 2mi
Dew Point: 43°   Wind: 9mph
Humidity: 96%   Direction: 310°NW
Pressure: 29.59"   Gusts: NA
Location:  37.9762°N, 90.0499°W
Report Text: KSAR 252015Z AUTO 31008KT 2SM DZ OVC006 07/06 A2959 RMK AO2 T00680062
Loading
Personal Weather Stations






























Interactive Weather Map New forecast layout! Learn more

10-Day Weather Forecast

Advertisements
Track Severe Weather on mobile